sensor_id;sensor_type;location;lat;lon;timestamp;P1;durP1;ratioP1;P2;durP2;ratioP2
19897;SDS011;10111;50.814;4.572;2023-05-07T00:00:00;4.13;;;3.73;;
19897;SDS011;10111;50.814;4.572;2023-05-07T00:02:26;7.13;;;4.37;;
19897;SDS011;10111;50.814;4.572;2023-05-07T00:04:51;5.87;;;4.07;;
19897;SDS011;10111;50.814;4.572;2023-05-07T00:07:17;7.57;;;4.53;;
19897;SDS011;10111;50.814;4.572;2023-05-07T00:09:43;5.87;;;4.50;;
19897;SDS011;10111;50.814;4.572;2023-05-07T00:12:09;6.27;;;4.40;;
19897;SDS011;10111;50.814;4.572;2023-05-07T00:14:35;8.53;;;4.97;;
19897;SDS011;10111;50.814;4.572;2023-05-07T00:17:01;5.73;;;4.80;;
19897;SDS011;10111;50.814;4.572;2023-05-07T00:19:26;5.93;;;3.77;;
19897;SDS011;10111;50.814;4.572;2023-05-07T00:21:52;7.13;;;4.07;;
19897;SDS011;10111;50.814;4.572;2023-05-07T00:24:21;7.37;;;4.37;;
19897;SDS011;10111;50.814;4.572;2023-05-07T00:26:47;4.40;;;4.00;;
19897;SDS011;10111;50.814;4.572;2023-05-07T00:29:12;4.63;;;4.23;;
19897;SDS011;10111;50.814;4.572;2023-05-07T00:31:38;5.10;;;4.60;;
19897;SDS011;10111;50.814;4.572;2023-05-07T00:34:04;10.47;;;5.37;;
19897;SDS011;10111;50.814;4.572;2023-05-07T00:36:29;5.70;;;3.90;;
19897;SDS011;10111;50.814;4.572;2023-05-07T00:38:56;5.27;;;4.10;;
19897;SDS011;10111;50.814;4.572;2023-05-07T00:41:23;5.63;;;3.90;;
19897;SDS011;10111;50.814;4.572;2023-05-07T00:43:49;5.43;;;4.23;;
19897;SDS011;10111;50.814;4.572;2023-05-07T00:46:16;6.03;;;3.97;;
19897;SDS011;10111;50.814;4.572;2023-05-07T00:48:44;6.13;;;4.60;;
19897;SDS011;10111;50.814;4.572;2023-05-07T00:51:10;4.63;;;4.13;;
19897;SDS011;10111;50.814;4.572;2023-05-07T00:53:36;4.97;;;4.00;;
19897;SDS011;10111;50.814;4.572;2023-05-07T00:56:03;6.33;;;3.80;;
19897;SDS011;10111;50.814;4.572;2023-05-07T00:58:29;8.60;;;4.70;;
19897;SDS011;10111;50.814;4.572;2023-05-07T01:00:55;5.73;;;4.53;;
19897;SDS011;10111;50.814;4.572;2023-05-07T01:03:21;7.23;;;5.10;;
19897;SDS011;10111;50.814;4.572;2023-05-07T01:05:47;4.50;;;4.10;;
19897;SDS011;10111;50.814;4.572;2023-05-07T01:08:15;8.13;;;4.53;;
19897;SDS011;10111;50.814;4.572;2023-05-07T01:10:41;4.63;;;4.00;;
19897;SDS011;10111;50.814;4.572;2023-05-07T01:13:09;4.87;;;4.00;;
19897;SDS011;10111;50.814;4.572;2023-05-07T01:15:35;4.97;;;3.47;;
19897;SDS011;10111;50.814;4.572;2023-05-07T01:18:01;6.03;;;4.10;;
19897;SDS011;10111;50.814;4.572;2023-05-07T01:20:27;5.43;;;3.87;;
19897;SDS011;10111;50.814;4.572;2023-05-07T01:22:53;5.17;;;4.67;;
19897;SDS011;10111;50.814;4.572;2023-05-07T01:25:20;6.70;;;4.17;;
19897;SDS011;10111;50.814;4.572;2023-05-07T01:27:45;6.43;;;4.33;;
19897;SDS011;10111;50.814;4.572;2023-05-07T01:30:11;6.73;;;4.97;;
19897;SDS011;10111;50.814;4.572;2023-05-07T01:32:40;5.70;;;4.43;;
19897;SDS011;10111;50.814;4.572;2023-05-07T01:35:19;9.60;;;4.83;;
19897;SDS011;10111;50.814;4.572;2023-05-07T01:37:47;5.70;;;4.07;;
19897;SDS011;10111;50.814;4.572;2023-05-07T01:40:14;7.00;;;5.10;;
19897;SDS011;10111;50.814;4.572;2023-05-07T01:42:41;8.37;;;5.27;;
19897;SDS011;10111;50.814;4.572;2023-05-07T01:45:08;8.03;;;5.63;;
19897;SDS011;10111;50.814;4.572;2023-05-07T01:47:35;8.67;;;5.50;;
19897;SDS011;10111;50.814;4.572;2023-05-07T01:50:02;8.00;;;5.40;;
19897;SDS011;10111;50.814;4.572;2023-05-07T01:52:30;9.57;;;6.13;;
19897;SDS011;10111;50.814;4.572;2023-05-07T01:54:56;6.60;;;5.17;;
19897;SDS011;10111;50.814;4.572;2023-05-07T01:57:22;8.87;;;5.13;;
19897;SDS011;10111;50.814;4.572;2023-05-07T01:59:47;6.77;;;5.50;;
19897;SDS011;10111;50.814;4.572;2023-05-07T02:02:13;5.73;;;5.17;;
19897;SDS011;10111;50.814;4.572;2023-05-07T02:04:39;5.30;;;4.80;;
19897;SDS011;10111;50.814;4.572;2023-05-07T02:07:04;5.47;;;4.90;;
19897;SDS011;10111;50.814;4.572;2023-05-07T02:09:30;5.53;;;5.00;;
19897;SDS011;10111;50.814;4.572;2023-05-07T02:11:56;7.03;;;4.90;;
19897;SDS011;10111;50.814;4.572;2023-05-07T02:14:21;7.03;;;4.70;;
19897;SDS011;10111;50.814;4.572;2023-05-07T02:16:47;5.73;;;4.73;;
19897;SDS011;10111;50.814;4.572;2023-05-07T02:19:13;7.10;;;5.00;;
19897;SDS011;10111;50.814;4.572;2023-05-07T02:21:38;6.77;;;5.10;;
19897;SDS011;10111;50.814;4.572;2023-05-07T02:24:04;8.63;;;5.13;;
19897;SDS011;10111;50.814;4.572;2023-05-07T02:26:30;10.37;;;5.93;;
19897;SDS011;10111;50.814;4.572;2023-05-07T02:28:56;6.70;;;4.30;;
19897;SDS011;10111;50.814;4.572;2023-05-07T02:31:21;6.77;;;5.93;;
19897;SDS011;10111;50.814;4.572;2023-05-07T02:33:47;6.60;;;4.70;;
19897;SDS011;10111;50.814;4.572;2023-05-07T02:36:12;6.80;;;5.80;;
19897;SDS011;10111;50.814;4.572;2023-05-07T02:38:38;5.50;;;5.00;;
19897;SDS011;10111;50.814;4.572;2023-05-07T02:41:04;6.47;;;5.30;;
19897;SDS011;10111;50.814;4.572;2023-05-07T02:43:30;9.67;;;5.10;;
19897;SDS011;10111;50.814;4.572;2023-05-07T02:46:02;7.73;;;5.10;;
19897;SDS011;10111;50.814;4.572;2023-05-07T02:48:33;6.93;;;4.60;;
19897;SDS011;10111;50.814;4.572;2023-05-07T02:50:59;5.43;;;4.93;;
19897;SDS011;10111;50.814;4.572;2023-05-07T02:53:25;6.40;;;5.23;;
19897;SDS011;10111;50.814;4.572;2023-05-07T02:55:55;7.23;;;5.50;;
19897;SDS011;10111;50.814;4.572;2023-05-07T02:58:22;10.37;;;5.20;;
19897;SDS011;10111;50.814;4.572;2023-05-07T03:00:47;8.43;;;5.53;;
19897;SDS011;10111;50.814;4.572;2023-05-07T03:03:13;11.17;;;5.37;;
19897;SDS011;10111;50.814;4.572;2023-05-07T03:05:39;8.60;;;5.73;;
19897;SDS011;10111;50.814;4.572;2023-05-07T03:08:05;6.87;;;6.00;;
19897;SDS011;10111;50.814;4.572;2023-05-07T03:10:30;7.90;;;6.30;;
19897;SDS011;10111;50.814;4.572;2023-05-07T03:12:56;12.83;;;5.37;;
19897;SDS011;10111;50.814;4.572;2023-05-07T03:15:22;7.67;;;6.07;;
19897;SDS011;10111;50.814;4.572;2023-05-07T03:17:48;9.37;;;5.43;;
19897;SDS011;10111;50.814;4.572;2023-05-07T03:20:13;9.60;;;5.77;;
19897;SDS011;10111;50.814;4.572;2023-05-07T03:22:39;8.17;;;5.50;;
19897;SDS011;10111;50.814;4.572;2023-05-07T03:25:05;7.63;;;5.37;;
19897;SDS011;10111;50.814;4.572;2023-05-07T03:27:32;12.73;;;6.67;;
19897;SDS011;10111;50.814;4.572;2023-05-07T03:29:57;9.43;;;5.33;;
19897;SDS011;10111;50.814;4.572;2023-05-07T03:32:23;6.10;;;4.77;;
19897;SDS011;10111;50.814;4.572;2023-05-07T03:34:49;9.47;;;5.33;;
19897;SDS011;10111;50.814;4.572;2023-05-07T03:37:15;5.63;;;5.03;;
19897;SDS011;10111;50.814;4.572;2023-05-07T03:39:41;8.07;;;5.70;;
19897;SDS011;10111;50.814;4.572;2023-05-07T03:42:06;9.07;;;5.27;;
19897;SDS011;10111;50.814;4.572;2023-05-07T03:44:32;8.43;;;5.60;;
19897;SDS011;10111;50.814;4.572;2023-05-07T03:46:58;7.03;;;6.03;;
19897;SDS011;10111;50.814;4.572;2023-05-07T03:49:23;8.93;;;6.20;;
19897;SDS011;10111;50.814;4.572;2023-05-07T03:51:49;5.73;;;5.13;;
19897;SDS011;10111;50.814;4.572;2023-05-07T03:54:15;6.73;;;5.40;;
19897;SDS011;10111;50.814;4.572;2023-05-07T03:56:40;6.87;;;5.70;;
19897;SDS011;10111;50.814;4.572;2023-05-07T03:59:06;5.33;;;4.77;;
19897;SDS011;10111;50.814;4.572;2023-05-07T04:01:31;7.77;;;5.10;;
19897;SDS011;10111;50.814;4.572;2023-05-07T04:03:57;7.47;;;5.23;;
19897;SDS011;10111;50.814;4.572;2023-05-07T04:06:23;7.77;;;5.30;;
19897;SDS011;10111;50.814;4.572;2023-05-07T04:08:49;6.87;;;4.90;;
19897;SDS011;10111;50.814;4.572;2023-05-07T04:11:15;6.27;;;4.90;;
19897;SDS011;10111;50.814;4.572;2023-05-07T04:13:40;5.47;;;4.93;;
19897;SDS011;10111;50.814;4.572;2023-05-07T04:16:06;5.33;;;4.43;;
19897;SDS011;10111;50.814;4.572;2023-05-07T04:18:32;8.10;;;5.57;;
19897;SDS011;10111;50.814;4.572;2023-05-07T04:20:58;8.50;;;5.40;;
19897;SDS011;10111;50.814;4.572;2023-05-07T04:23:24;6.77;;;4.90;;
19897;SDS011;10111;50.814;4.572;2023-05-07T04:25:50;7.57;;;4.63;;
19897;SDS011;10111;50.814;4.572;2023-05-07T04:28:15;9.17;;;5.60;;
19897;SDS011;10111;50.814;4.572;2023-05-07T04:30:41;7.23;;;4.80;;
19897;SDS011;10111;50.814;4.572;2023-05-07T04:33:07;6.60;;;4.60;;
19897;SDS011;10111;50.814;4.572;2023-05-07T04:35:33;6.43;;;5.33;;
19897;SDS011;10111;50.814;4.572;2023-05-07T04:37:59;6.30;;;4.83;;
19897;SDS011;10111;50.814;4.572;2023-05-07T04:40:25;5.63;;;4.83;;
19897;SDS011;10111;50.814;4.572;2023-05-07T04:42:51;9.00;;;6.07;;
19897;SDS011;10111;50.814;4.572;2023-05-07T04:45:18;5.43;;;4.73;;
19897;SDS011;10111;50.814;4.572;2023-05-07T04:47:43;8.77;;;5.00;;
19897;SDS011;10111;50.814;4.572;2023-05-07T04:50:09;6.37;;;5.43;;
19897;SDS011;10111;50.814;4.572;2023-05-07T04:52:35;8.13;;;5.97;;
19897;SDS011;10111;50.814;4.572;2023-05-07T04:55:01;8.73;;;5.73;;
19897;SDS011;10111;50.814;4.572;2023-05-07T04:57:27;11.47;;;5.23;;
19897;SDS011;10111;50.814;4.572;2023-05-07T04:59:53;5.53;;;4.83;;
19897;SDS011;10111;50.814;4.572;2023-05-07T05:02:19;8.83;;;5.83;;
19897;SDS011;10111;50.814;4.572;2023-05-07T05:04:45;8.23;;;5.33;;
19897;SDS011;10111;50.814;4.572;2023-05-07T05:07:11;6.00;;;5.20;;
19897;SDS011;10111;50.814;4.572;2023-05-07T05:09:36;8.63;;;5.80;;
19897;SDS011;10111;50.814;4.572;2023-05-07T05:12:02;6.40;;;5.03;;
19897;SDS011;10111;50.814;4.572;2023-05-07T05:14:28;7.13;;;5.00;;
19897;SDS011;10111;50.814;4.572;2023-05-07T05:16:54;8.47;;;5.27;;
19897;SDS011;10111;50.814;4.572;2023-05-07T05:19:20;8.13;;;5.37;;
19897;SDS011;10111;50.814;4.572;2023-05-07T05:21:45;8.53;;;5.97;;
19897;SDS011;10111;50.814;4.572;2023-05-07T05:24:11;10.80;;;6.57;;
19897;SDS011;10111;50.814;4.572;2023-05-07T05:26:37;6.57;;;5.70;;
19897;SDS011;10111;50.814;4.572;2023-05-07T05:29:02;7.17;;;5.07;;
19897;SDS011;10111;50.814;4.572;2023-05-07T05:31:28;7.93;;;6.07;;
19897;SDS011;10111;50.814;4.572;2023-05-07T05:33:54;7.30;;;4.97;;
19897;SDS011;10111;50.814;4.572;2023-05-07T05:36:19;7.87;;;5.27;;
19897;SDS011;10111;50.814;4.572;2023-05-07T05:38:45;8.53;;;6.00;;
19897;SDS011;10111;50.814;4.572;2023-05-07T05:41:11;11.33;;;6.20;;
19897;SDS011;10111;50.814;4.572;2023-05-07T05:43:36;11.93;;;6.50;;
19897;SDS011;10111;50.814;4.572;2023-05-07T05:46:02;8.17;;;6.13;;
19897;SDS011;10111;50.814;4.572;2023-05-07T05:48:29;7.03;;;5.40;;
19897;SDS011;10111;50.814;4.572;2023-05-07T05:50:55;6.80;;;5.70;;
19897;SDS011;10111;50.814;4.572;2023-05-07T05:53:20;10.00;;;6.50;;
19897;SDS011;10111;50.814;4.572;2023-05-07T05:55:46;10.90;;;7.27;;
19897;SDS011;10111;50.814;4.572;2023-05-07T05:58:12;8.10;;;5.97;;
19897;SDS011;10111;50.814;4.572;2023-05-07T06:00:38;8.73;;;6.40;;
19897;SDS011;10111;50.814;4.572;2023-05-07T06:03:03;9.37;;;6.57;;
19897;SDS011;10111;50.814;4.572;2023-05-07T06:05:29;11.50;;;6.90;;
19897;SDS011;10111;50.814;4.572;2023-05-07T06:07:55;9.33;;;6.50;;
19897;SDS011;10111;50.814;4.572;2023-05-07T06:10:21;7.70;;;6.07;;
19897;SDS011;10111;50.814;4.572;2023-05-07T06:12:46;11.10;;;7.13;;
19897;SDS011;10111;50.814;4.572;2023-05-07T06:15:12;12.10;;;6.93;;
19897;SDS011;10111;50.814;4.572;2023-05-07T06:17:38;10.07;;;6.90;;
19897;SDS011;10111;50.814;4.572;2023-05-07T06:20:03;13.27;;;6.70;;
19897;SDS011;10111;50.814;4.572;2023-05-07T06:22:30;12.20;;;6.47;;
19897;SDS011;10111;50.814;4.572;2023-05-07T06:24:55;10.23;;;6.00;;
19897;SDS011;10111;50.814;4.572;2023-05-07T06:27:21;9.83;;;6.30;;
19897;SDS011;10111;50.814;4.572;2023-05-07T06:29:47;7.40;;;6.40;;
19897;SDS011;10111;50.814;4.572;2023-05-07T06:32:13;14.20;;;7.17;;
19897;SDS011;10111;50.814;4.572;2023-05-07T06:34:39;9.90;;;6.60;;
19897;SDS011;10111;50.814;4.572;2023-05-07T06:37:05;9.87;;;7.30;;
19897;SDS011;10111;50.814;4.572;2023-05-07T06:39:31;9.90;;;6.10;;
19897;SDS011;10111;50.814;4.572;2023-05-07T06:41:58;12.63;;;7.17;;
19897;SDS011;10111;50.814;4.572;2023-05-07T06:44:24;7.83;;;6.20;;
19897;SDS011;10111;50.814;4.572;2023-05-07T06:46:50;9.33;;;6.70;;
19897;SDS011;10111;50.814;4.572;2023-05-07T06:49:16;10.37;;;5.27;;
19897;SDS011;10111;50.814;4.572;2023-05-07T06:51:41;13.77;;;5.37;;
19897;SDS011;10111;50.814;4.572;2023-05-07T06:54:07;7.57;;;4.23;;
19897;SDS011;10111;50.814;4.572;2023-05-07T06:56:33;10.00;;;4.80;;
19897;SDS011;10111;50.814;4.572;2023-05-07T06:58:59;6.97;;;3.43;;
19897;SDS011;10111;50.814;4.572;2023-05-07T07:01:26;5.33;;;3.40;;
19897;SDS011;10111;50.814;4.572;2023-05-07T07:03:51;7.90;;;3.93;;
19897;SDS011;10111;50.814;4.572;2023-05-07T07:06:17;7.73;;;4.60;;
19897;SDS011;10111;50.814;4.572;2023-05-07T07:08:43;6.27;;;3.37;;
19897;SDS011;10111;50.814;4.572;2023-05-07T07:11:09;13.87;;;4.70;;
19897;SDS011;10111;50.814;4.572;2023-05-07T07:13:35;7.00;;;3.87;;
19897;SDS011;10111;50.814;4.572;2023-05-07T07:16:01;4.60;;;3.37;;
19897;SDS011;10111;50.814;4.572;2023-05-07T07:18:27;7.53;;;4.47;;
19897;SDS011;10111;50.814;4.572;2023-05-07T07:20:52;5.80;;;3.13;;
19897;SDS011;10111;50.814;4.572;2023-05-07T07:23:18;12.43;;;5.03;;
19897;SDS011;10111;50.814;4.572;2023-05-07T07:25:44;7.53;;;4.20;;
19897;SDS011;10111;50.814;4.572;2023-05-07T07:28:10;5.43;;;3.53;;
19897;SDS011;10111;50.814;4.572;2023-05-07T07:30:36;8.77;;;4.43;;
19897;SDS011;10111;50.814;4.572;2023-05-07T07:33:02;6.47;;;4.40;;
19897;SDS011;10111;50.814;4.572;2023-05-07T07:35:34;7.97;;;4.00;;
19897;SDS011;10111;50.814;4.572;2023-05-07T07:38:00;10.50;;;4.27;;
19897;SDS011;10111;50.814;4.572;2023-05-07T07:40:26;7.87;;;4.23;;
19897;SDS011;10111;50.814;4.572;2023-05-07T07:42:52;8.97;;;4.23;;
19897;SDS011;10111;50.814;4.572;2023-05-07T07:45:19;6.37;;;3.93;;
19897;SDS011;10111;50.814;4.572;2023-05-07T07:47:45;7.80;;;4.23;;
19897;SDS011;10111;50.814;4.572;2023-05-07T07:50:10;6.53;;;3.67;;
19897;SDS011;10111;50.814;4.572;2023-05-07T07:52:36;8.90;;;3.80;;
19897;SDS011;10111;50.814;4.572;2023-05-07T07:55:02;5.10;;;3.50;;
19897;SDS011;10111;50.814;4.572;2023-05-07T07:57:29;3.80;;;2.83;;
19897;SDS011;10111;50.814;4.572;2023-05-07T07:59:55;7.33;;;2.87;;
19897;SDS011;10111;50.814;4.572;2023-05-07T08:02:21;6.17;;;3.80;;
19897;SDS011;10111;50.814;4.572;2023-05-07T08:04:46;14.53;;;4.57;;
19897;SDS011;10111;50.814;4.572;2023-05-07T08:07:12;5.70;;;4.00;;
19897;SDS011;10111;50.814;4.572;2023-05-07T08:09:38;10.03;;;3.67;;
19897;SDS011;10111;50.814;4.572;2023-05-07T08:12:05;5.40;;;3.30;;
19897;SDS011;10111;50.814;4.572;2023-05-07T08:14:31;6.70;;;3.43;;
19897;SDS011;10111;50.814;4.572;2023-05-07T08:16:57;7.57;;;4.03;;
19897;SDS011;10111;50.814;4.572;2023-05-07T08:19:22;7.03;;;3.47;;
19897;SDS011;10111;50.814;4.572;2023-05-07T08:21:48;7.00;;;3.47;;
19897;SDS011;10111;50.814;4.572;2023-05-07T08:24:14;7.87;;;3.87;;
19897;SDS011;10111;50.814;4.572;2023-05-07T08:26:40;5.57;;;3.83;;
19897;SDS011;10111;50.814;4.572;2023-05-07T08:29:06;6.40;;;3.73;;
19897;SDS011;10111;50.814;4.572;2023-05-07T08:31:32;6.70;;;3.60;;
19897;SDS011;10111;50.814;4.572;2023-05-07T08:33:58;4.80;;;3.60;;
19897;SDS011;10111;50.814;4.572;2023-05-07T08:36:24;4.63;;;3.27;;
19897;SDS011;10111;50.814;4.572;2023-05-07T08:38:53;5.37;;;3.90;;
19897;SDS011;10111;50.814;4.572;2023-05-07T08:41:20;7.00;;;3.10;;
19897;SDS011;10111;50.814;4.572;2023-05-07T08:43:49;8.90;;;2.80;;
19897;SDS011;10111;50.814;4.572;2023-05-07T08:46:22;6.63;;;3.70;;
19897;SDS011;10111;50.814;4.572;2023-05-07T08:48:51;7.63;;;4.10;;
19897;SDS011;10111;50.814;4.572;2023-05-07T08:51:17;7.90;;;3.60;;
19897;SDS011;10111;50.814;4.572;2023-05-07T08:53:44;4.60;;;3.13;;
19897;SDS011;10111;50.814;4.572;2023-05-07T08:56:13;6.53;;;3.37;;
19897;SDS011;10111;50.814;4.572;2023-05-07T08:58:40;4.93;;;3.90;;
19897;SDS011;10111;50.814;4.572;2023-05-07T09:01:07;6.63;;;3.70;;
19897;SDS011;10111;50.814;4.572;2023-05-07T09:03:36;5.57;;;3.60;;
19897;SDS011;10111;50.814;4.572;2023-05-07T09:06:02;6.70;;;3.10;;
19897;SDS011;10111;50.814;4.572;2023-05-07T09:08:28;4.23;;;3.03;;
19897;SDS011;10111;50.814;4.572;2023-05-07T09:10:54;7.20;;;3.33;;
19897;SDS011;10111;50.814;4.572;2023-05-07T09:13:20;6.77;;;3.57;;
19897;SDS011;10111;50.814;4.572;2023-05-07T09:15:46;6.10;;;2.97;;
19897;SDS011;10111;50.814;4.572;2023-05-07T09:18:12;6.20;;;3.63;;
19897;SDS011;10111;50.814;4.572;2023-05-07T09:20:37;4.80;;;2.87;;
19897;SDS011;10111;50.814;4.572;2023-05-07T09:23:04;5.40;;;3.40;;
19897;SDS011;10111;50.814;4.572;2023-05-07T09:25:30;7.17;;;2.57;;
19897;SDS011;10111;50.814;4.572;2023-05-07T09:27:57;3.33;;;2.73;;
19897;SDS011;10111;50.814;4.572;2023-05-07T09:30:27;7.80;;;3.13;;
19897;SDS011;10111;50.814;4.572;2023-05-07T09:32:54;3.53;;;2.50;;
19897;SDS011;10111;50.814;4.572;2023-05-07T09:35:19;4.73;;;2.90;;
19897;SDS011;10111;50.814;4.572;2023-05-07T09:37:52;4.70;;;3.17;;
19897;SDS011;10111;50.814;4.572;2023-05-07T09:40:22;5.30;;;2.93;;
19897;SDS011;10111;50.814;4.572;2023-05-07T09:42:49;5.13;;;3.07;;
19897;SDS011;10111;50.814;4.572;2023-05-07T09:45:49;5.67;;;3.37;;
19897;SDS011;10111;50.814;4.572;2023-05-07T09:48:07;5.83;;;3.23;;
19897;SDS011;10111;50.814;4.572;2023-05-07T09:50:40;7.13;;;3.63;;
19897;SDS011;10111;50.814;4.572;2023-05-07T09:53:15;6.27;;;3.77;;
19897;SDS011;10111;50.814;4.572;2023-05-07T09:55:42;6.60;;;3.27;;
19897;SDS011;10111;50.814;4.572;2023-05-07T09:58:08;5.80;;;3.20;;
19897;SDS011;10111;50.814;4.572;2023-05-07T10:00:37;6.67;;;3.73;;
19897;SDS011;10111;50.814;4.572;2023-05-07T10:03:05;4.57;;;3.23;;
19897;SDS011;10111;50.814;4.572;2023-05-07T10:05:32;12.00;;;3.40;;
19897;SDS011;10111;50.814;4.572;2023-05-07T10:07:58;9.40;;;3.77;;
19897;SDS011;10111;50.814;4.572;2023-05-07T10:10:25;5.10;;;2.97;;
19897;SDS011;10111;50.814;4.572;2023-05-07T10:12:52;4.43;;;3.57;;
19897;SDS011;10111;50.814;4.572;2023-05-07T10:15:19;4.80;;;3.67;;
19897;SDS011;10111;50.814;4.572;2023-05-07T10:17:46;6.90;;;4.03;;
19897;SDS011;10111;50.814;4.572;2023-05-07T10:20:13;5.13;;;4.00;;
19897;SDS011;10111;50.814;4.572;2023-05-07T10:22:40;4.07;;;3.13;;
19897;SDS011;10111;50.814;4.572;2023-05-07T10:25:16;4.50;;;3.20;;
19897;SDS011;10111;50.814;4.572;2023-05-07T10:27:50;6.47;;;3.27;;
19897;SDS011;10111;50.814;4.572;2023-05-07T10:30:26;8.77;;;3.93;;
19897;SDS011;10111;50.814;4.572;2023-05-07T10:33:03;4.87;;;4.23;;
19897;SDS011;10111;50.814;4.572;2023-05-07T10:35:37;4.80;;;3.60;;
19897;SDS011;10111;50.814;4.572;2023-05-07T10:38:06;4.57;;;3.00;;
19897;SDS011;10111;50.814;4.572;2023-05-07T10:40:32;3.87;;;2.87;;
19897;SDS011;10111;50.814;4.572;2023-05-07T10:42:59;6.23;;;3.03;;
19897;SDS011;10111;50.814;4.572;2023-05-07T10:45:26;4.57;;;2.90;;
19897;SDS011;10111;50.814;4.572;2023-05-07T10:48:05;5.13;;;2.87;;
19897;SDS011;10111;50.814;4.572;2023-05-07T10:50:36;4.60;;;3.10;;
19897;SDS011;10111;50.814;4.572;2023-05-07T10:55:47;2.93;;;2.33;;
19897;SDS011;10111;50.814;4.572;2023-05-07T10:58:26;2.40;;;2.20;;
19897;SDS011;10111;50.814;4.572;2023-05-07T11:00:59;5.00;;;2.77;;
19897;SDS011;10111;50.814;4.572;2023-05-07T11:03:26;3.97;;;2.30;;
19897;SDS011;10111;50.814;4.572;2023-05-07T11:06:09;6.40;;;2.77;;
19897;SDS011;10111;50.814;4.572;2023-05-07T11:09:09;4.73;;;2.17;;
19897;SDS011;10111;50.814;4.572;2023-05-07T11:11:44;3.03;;;2.20;;
19897;SDS011;10111;50.814;4.572;2023-05-07T11:17:07;6.13;;;2.67;;
19897;SDS011;10111;50.814;4.572;2023-05-07T11:19:52;3.67;;;2.50;;
19897;SDS011;10111;50.814;4.572;2023-05-07T11:24:57;4.03;;;2.23;;
19897;SDS011;10111;50.814;4.572;2023-05-07T11:27:25;3.37;;;2.27;;
19897;SDS011;10111;50.814;4.572;2023-05-07T11:29:51;4.70;;;2.40;;
19897;SDS011;10111;50.814;4.572;2023-05-07T11:32:24;5.70;;;2.20;;
19897;SDS011;10111;50.814;4.572;2023-05-07T11:34:51;2.47;;;2.03;;
19897;SDS011;10111;50.814;4.572;2023-05-07T11:37:18;3.83;;;2.30;;
19897;SDS011;10111;50.814;4.572;2023-05-07T11:39:45;4.03;;;2.23;;
19897;SDS011;10111;50.814;4.572;2023-05-07T11:42:30;4.13;;;2.10;;
19897;SDS011;10111;50.814;4.572;2023-05-07T11:45:00;4.40;;;3.00;;
19897;SDS011;10111;50.814;4.572;2023-05-07T11:47:26;4.40;;;2.50;;
19897;SDS011;10111;50.814;4.572;2023-05-07T11:49:55;4.90;;;2.30;;
19897;SDS011;10111;50.814;4.572;2023-05-07T11:52:22;4.93;;;2.50;;
19897;SDS011;10111;50.814;4.572;2023-05-07T11:54:52;2.40;;;2.20;;
19897;SDS011;10111;50.814;4.572;2023-05-07T11:57:20;3.33;;;2.30;;
19897;SDS011;10111;50.814;4.572;2023-05-07T11:59:46;4.03;;;2.10;;
19897;SDS011;10111;50.814;4.572;2023-05-07T12:02:13;2.73;;;2.20;;
19897;SDS011;10111;50.814;4.572;2023-05-07T12:04:40;5.80;;;2.67;;
19897;SDS011;10111;50.814;4.572;2023-05-07T12:07:12;4.10;;;2.43;;
19897;SDS011;10111;50.814;4.572;2023-05-07T12:09:39;2.90;;;2.50;;
19897;SDS011;10111;50.814;4.572;2023-05-07T12:12:05;1.80;;;1.70;;
19897;SDS011;10111;50.814;4.572;2023-05-07T12:14:31;3.93;;;2.13;;
19897;SDS011;10111;50.814;4.572;2023-05-07T12:16:57;3.23;;;2.17;;
19897;SDS011;10111;50.814;4.572;2023-05-07T12:19:27;4.77;;;2.30;;
19897;SDS011;10111;50.814;4.572;2023-05-07T12:21:56;2.20;;;1.97;;
19897;SDS011;10111;50.814;4.572;2023-05-07T12:24:22;3.97;;;2.20;;
19897;SDS011;10111;50.814;4.572;2023-05-07T12:26:48;3.43;;;3.07;;
19897;SDS011;10111;50.814;4.572;2023-05-07T12:29:14;2.93;;;2.33;;
19897;SDS011;10111;50.814;4.572;2023-05-07T12:31:43;3.77;;;2.60;;
19897;SDS011;10111;50.814;4.572;2023-05-07T12:34:10;8.27;;;2.50;;
19897;SDS011;10111;50.814;4.572;2023-05-07T12:36:40;5.17;;;2.33;;
19897;SDS011;10111;50.814;4.572;2023-05-07T12:39:06;2.43;;;2.00;;
19897;SDS011;10111;50.814;4.572;2023-05-07T12:41:53;3.90;;;2.53;;
19897;SDS011;10111;50.814;4.572;2023-05-07T12:44:22;3.77;;;2.40;;
19897;SDS011;10111;50.814;4.572;2023-05-07T12:46:49;3.80;;;2.80;;
19897;SDS011;10111;50.814;4.572;2023-05-07T12:49:15;2.20;;;2.00;;
19897;SDS011;10111;50.814;4.572;2023-05-07T12:51:41;2.63;;;2.20;;
19897;SDS011;10111;50.814;4.572;2023-05-07T12:54:07;2.70;;;1.93;;
19897;SDS011;10111;50.814;4.572;2023-05-07T12:56:35;3.27;;;2.40;;
19897;SDS011;10111;50.814;4.572;2023-05-07T12:59:01;3.73;;;2.37;;
19897;SDS011;10111;50.814;4.572;2023-05-07T13:01:30;5.03;;;2.77;;
19897;SDS011;10111;50.814;4.572;2023-05-07T13:04:00;4.07;;;2.30;;
19897;SDS011;10111;50.814;4.572;2023-05-07T13:06:28;3.27;;;2.60;;
19897;SDS011;10111;50.814;4.572;2023-05-07T13:08:55;2.63;;;2.43;;
19897;SDS011;10111;50.814;4.572;2023-05-07T13:11:20;2.97;;;2.20;;
19897;SDS011;10111;50.814;4.572;2023-05-07T13:13:46;3.23;;;2.60;;
19897;SDS011;10111;50.814;4.572;2023-05-07T13:16:12;4.63;;;2.87;;
19897;SDS011;10111;50.814;4.572;2023-05-07T13:18:38;2.70;;;2.37;;
19897;SDS011;10111;50.814;4.572;2023-05-07T13:21:05;2.93;;;2.00;;
19897;SDS011;10111;50.814;4.572;2023-05-07T13:23:31;3.93;;;2.80;;
19897;SDS011;10111;50.814;4.572;2023-05-07T13:25:56;3.67;;;2.47;;
19897;SDS011;10111;50.814;4.572;2023-05-07T13:28:22;3.53;;;2.40;;
19897;SDS011;10111;50.814;4.572;2023-05-07T13:30:49;3.30;;;2.20;;
19897;SDS011;10111;50.814;4.572;2023-05-07T13:33:16;3.93;;;2.77;;
19897;SDS011;10111;50.814;4.572;2023-05-07T13:35:42;3.50;;;2.60;;
19897;SDS011;10111;50.814;4.572;2023-05-07T13:38:08;3.47;;;2.80;;
19897;SDS011;10111;50.814;4.572;2023-05-07T13:40:34;4.27;;;3.30;;
19897;SDS011;10111;50.814;4.572;2023-05-07T13:42:59;5.63;;;2.80;;
19897;SDS011;10111;50.814;4.572;2023-05-07T13:45:27;5.07;;;2.70;;
19897;SDS011;10111;50.814;4.572;2023-05-07T13:47:54;4.07;;;2.50;;
19897;SDS011;10111;50.814;4.572;2023-05-07T13:50:20;5.20;;;2.60;;
19897;SDS011;10111;50.814;4.572;2023-05-07T13:52:46;4.20;;;2.53;;
19897;SDS011;10111;50.814;4.572;2023-05-07T13:55:16;6.37;;;3.47;;
19897;SDS011;10111;50.814;4.572;2023-05-07T13:57:46;5.40;;;3.20;;
19897;SDS011;10111;50.814;4.572;2023-05-07T14:00:12;4.47;;;3.13;;
19897;SDS011;10111;50.814;4.572;2023-05-07T14:02:39;4.50;;;2.93;;
19897;SDS011;10111;50.814;4.572;2023-05-07T14:05:05;3.40;;;3.10;;
19897;SDS011;10111;50.814;4.572;2023-05-07T14:07:32;5.20;;;3.87;;
19897;SDS011;10111;50.814;4.572;2023-05-07T14:09:57;3.40;;;3.10;;
19897;SDS011;10111;50.814;4.572;2023-05-07T14:12:23;2.80;;;2.60;;
19897;SDS011;10111;50.814;4.572;2023-05-07T14:14:49;5.53;;;3.87;;
19897;SDS011;10111;50.814;4.572;2023-05-07T14:17:18;3.40;;;3.10;;
19897;SDS011;10111;50.814;4.572;2023-05-07T14:19:45;3.77;;;3.47;;
19897;SDS011;10111;50.814;4.572;2023-05-07T14:22:13;4.83;;;3.83;;
19897;SDS011;10111;50.814;4.572;2023-05-07T14:24:40;4.90;;;3.87;;
19897;SDS011;10111;50.814;4.572;2023-05-07T14:27:05;5.07;;;4.27;;
19897;SDS011;10111;50.814;4.572;2023-05-07T14:29:31;4.30;;;3.90;;
19897;SDS011;10111;50.814;4.572;2023-05-07T14:31:57;3.67;;;3.33;;
19897;SDS011;10111;50.814;4.572;2023-05-07T14:34:23;4.63;;;3.70;;
19897;SDS011;10111;50.814;4.572;2023-05-07T14:36:48;3.10;;;2.77;;
19897;SDS011;10111;50.814;4.572;2023-05-07T14:39:14;5.27;;;3.50;;
19897;SDS011;10111;50.814;4.572;2023-05-07T14:41:40;4.87;;;3.63;;
19897;SDS011;10111;50.814;4.572;2023-05-07T14:44:05;3.83;;;3.40;;
19897;SDS011;10111;50.814;4.572;2023-05-07T14:46:31;4.37;;;3.97;;
19897;SDS011;10111;50.814;4.572;2023-05-07T14:48:57;5.80;;;4.43;;
19897;SDS011;10111;50.814;4.572;2023-05-07T14:51:22;4.80;;;4.37;;